sensor_id;sensor_type;location;lat;lon;timestamp;pressure;altitude;pressure_sealevel;temperature;humidity
3748;BME280;1889;50.058;8.688;2024-03-06T00:04:12;100339.76;;;11.87;71.46
3748;BME280;1889;50.058;8.688;2024-03-06T00:06:45;100351.63;;;11.87;71.71
3748;BME280;1889;50.058;8.688;2024-03-06T00:09:20;100355.87;;;11.94;71.75
3748;BME280;1889;50.058;8.688;2024-03-06T00:11:50;100360.55;;;12.02;71.74
3748;BME280;1889;50.058;8.688;2024-03-06T00:14:23;100357.39;;;12.07;71.60
3748;BME280;1889;50.058;8.688;2024-03-06T00:16:53;100357.89;;;11.81;71.04
3748;BME280;1889;50.058;8.688;2024-03-06T00:19:25;100356.14;;;11.55;72.37
3748;BME280;1889;50.058;8.688;2024-03-06T00:21:55;100353.80;;;11.63;72.02
3748;BME280;1889;50.058;8.688;2024-03-06T00:24:25;100356.08;;;11.59;71.76
3748;BME280;1889;50.058;8.688;2024-03-06T00:26:56;100358.34;;;11.55;71.87
3748;BME280;1889;50.058;8.688;2024-03-06T00:29:25;100369.30;;;11.56;71.93
3748;BME280;1889;50.058;8.688;2024-03-06T00:31:55;100366.73;;;11.52;71.87
3748;BME280;1889;50.058;8.688;2024-03-06T00:34:24;100371.53;;;11.54;71.80
3748;BME280;1889;50.058;8.688;2024-03-06T00:36:58;100376.83;;;11.52;71.71
3748;BME280;1889;50.058;8.688;2024-03-06T00:39:29;100377.69;;;11.27;71.66
3748;BME280;1889;50.058;8.688;2024-03-06T00:41:58;100380.64;;;11.09;71.62
3748;BME280;1889;50.058;8.688;2024-03-06T00:44:28;100384.38;;;11.21;71.59
3748;BME280;1889;50.058;8.688;2024-03-06T00:47:00;100379.83;;;11.32;70.92
3748;BME280;1889;50.058;8.688;2024-03-06T00:49:36;100383.63;;;11.41;70.14
3748;BME280;1889;50.058;8.688;2024-03-06T00:52:07;100380.63;;;11.36;70.31
3748;BME280;1889;50.058;8.688;2024-03-06T00:54:37;100379.86;;;11.29;70.43
3748;BME280;1889;50.058;8.688;2024-03-06T00:57:07;100382.32;;;11.13;70.55
3748;BME280;1889;50.058;8.688;2024-03-06T00:59:46;100388.60;;;11.04;70.84
3748;BME280;1889;50.058;8.688;2024-03-06T01:02:23;100395.95;;;11.11;70.85
3748;BME280;1889;50.058;8.688;2024-03-06T01:05:04;100398.09;;;11.16;70.62
3748;BME280;1889;50.058;8.688;2024-03-06T01:07:34;100397.27;;;11.11;70.55
3748;BME280;1889;50.058;8.688;2024-03-06T01:10:13;100400.59;;;10.95;70.32
3748;BME280;1889;50.058;8.688;2024-03-06T01:12:52;100397.70;;;10.84;70.54
3748;BME280;1889;50.058;8.688;2024-03-06T01:15:21;100410.30;;;10.93;70.62
3748;BME280;1889;50.058;8.688;2024-03-06T01:17:52;100397.56;;;10.94;70.59
3748;BME280;1889;50.058;8.688;2024-03-06T01:20:28;100394.95;;;10.91;70.41
3748;BME280;1889;50.058;8.688;2024-03-06T01:22:58;100393.97;;;10.98;69.92
3748;BME280;1889;50.058;8.688;2024-03-06T01:25:28;100396.08;;;11.03;69.36
3748;BME280;1889;50.058;8.688;2024-03-06T01:28:01;100397.50;;;10.96;69.50
3748;BME280;1889;50.058;8.688;2024-03-06T01:30:31;100398.81;;;10.97;69.17
3748;BME280;1889;50.058;8.688;2024-03-06T01:33:04;100393.56;;;10.96;69.15
3748;BME280;1889;50.058;8.688;2024-03-06T01:35:40;100394.06;;;10.92;69.15
3748;BME280;1889;50.058;8.688;2024-03-06T01:38:10;100391.91;;;10.89;69.27
3748;BME280;1889;50.058;8.688;2024-03-06T01:40:45;100393.25;;;10.87;69.39
3748;BME280;1889;50.058;8.688;2024-03-06T01:43:25;100402.76;;;10.97;69.25
3748;BME280;1889;50.058;8.688;2024-03-06T01:45:55;100402.77;;;10.96;69.00
3748;BME280;1889;50.058;8.688;2024-03-06T01:48:29;100403.75;;;10.59;69.00
3748;BME280;1889;50.058;8.688;2024-03-06T01:51:01;100401.22;;;10.51;69.57
3748;BME280;1889;50.058;8.688;2024-03-06T01:53:33;100405.59;;;10.54;69.73
3748;BME280;1889;50.058;8.688;2024-03-06T01:56:04;100410.34;;;10.57;69.88
3748;BME280;1889;50.058;8.688;2024-03-06T01:58:34;100401.90;;;10.65;69.97
3748;BME280;1889;50.058;8.688;2024-03-06T02:01:03;100404.95;;;10.68;69.83
3748;BME280;1889;50.058;8.688;2024-03-06T02:03:33;100403.19;;;10.68;69.92
3748;BME280;1889;50.058;8.688;2024-03-06T02:06:03;100403.53;;;10.74;69.98
3748;BME280;1889;50.058;8.688;2024-03-06T02:08:33;100403.09;;;10.75;69.84
3748;BME280;1889;50.058;8.688;2024-03-06T02:11:03;100398.25;;;10.44;70.06
3748;BME280;1889;50.058;8.688;2024-03-06T02:13:32;100400.75;;;10.19;71.01
3748;BME280;1889;50.058;8.688;2024-03-06T02:16:02;100402.49;;;10.20;71.31
3748;BME280;1889;50.058;8.688;2024-03-06T02:18:31;100410.02;;;10.10;71.62
3748;BME280;1889;50.058;8.688;2024-03-06T02:21:01;100412.50;;;10.25;71.44
3748;BME280;1889;50.058;8.688;2024-03-06T02:23:30;100410.56;;;10.39;70.89
3748;BME280;1889;50.058;8.688;2024-03-06T02:25:59;100409.67;;;10.42;70.60
3748;BME280;1889;50.058;8.688;2024-03-06T02:28:30;100415.34;;;10.46;70.46
3748;BME280;1889;50.058;8.688;2024-03-06T02:30:59;100416.47;;;10.22;70.61
3748;BME280;1889;50.058;8.688;2024-03-06T02:33:30;100412.31;;;10.00;71.43
3748;BME280;1889;50.058;8.688;2024-03-06T02:36:01;100416.95;;;10.17;71.03
3748;BME280;1889;50.058;8.688;2024-03-06T02:38:30;100413.83;;;10.23;70.46
3748;BME280;1889;50.058;8.688;2024-03-06T02:40:59;100411.98;;;9.44;71.95
3748;BME280;1889;50.058;8.688;2024-03-06T02:43:29;100414.80;;;9.20;73.32
3748;BME280;1889;50.058;8.688;2024-03-06T02:45:58;100416.86;;;9.37;72.78
3748;BME280;1889;50.058;8.688;2024-03-06T02:48:28;100411.02;;;9.54;72.25
3748;BME280;1889;50.058;8.688;2024-03-06T02:50:57;100413.37;;;9.34;72.33
3748;BME280;1889;50.058;8.688;2024-03-06T02:53:26;100407.18;;;9.41;72.40
3748;BME280;1889;50.058;8.688;2024-03-06T02:55:56;100410.53;;;9.58;72.00
3748;BME280;1889;50.058;8.688;2024-03-06T02:58:25;100417.81;;;9.77;71.45
3748;BME280;1889;50.058;8.688;2024-03-06T03:00:56;100413.80;;;9.84;71.20
3748;BME280;1889;50.058;8.688;2024-03-06T03:03:25;100415.92;;;9.89;70.82
3748;BME280;1889;50.058;8.688;2024-03-06T03:05:55;100417.56;;;10.01;69.90
3748;BME280;1889;50.058;8.688;2024-03-06T03:08:25;100416.27;;;10.00;69.79
3748;BME280;1889;50.058;8.688;2024-03-06T03:10:54;100413.96;;;9.66;69.94
3748;BME280;1889;50.058;8.688;2024-03-06T03:13:24;100409.64;;;9.62;70.38
3748;BME280;1889;50.058;8.688;2024-03-06T03:15:54;100410.61;;;9.49;70.53
3748;BME280;1889;50.058;8.688;2024-03-06T03:18:23;100409.72;;;9.53;70.65
3748;BME280;1889;50.058;8.688;2024-03-06T03:20:52;100418.77;;;9.68;70.37
3748;BME280;1889;50.058;8.688;2024-03-06T03:23:22;100425.27;;;9.76;70.30
3748;BME280;1889;50.058;8.688;2024-03-06T03:25:51;100423.07;;;9.77;70.12
3748;BME280;1889;50.058;8.688;2024-03-06T03:28:20;100427.96;;;9.70;70.06
3748;BME280;1889;50.058;8.688;2024-03-06T03:30:50;100425.34;;;9.68;70.16
3748;BME280;1889;50.058;8.688;2024-03-06T03:33:19;100427.67;;;9.52;69.88
3748;BME280;1889;50.058;8.688;2024-03-06T03:35:48;100436.63;;;9.27;70.51
3748;BME280;1889;50.058;8.688;2024-03-06T03:38:18;100435.17;;;9.46;70.56
3748;BME280;1889;50.058;8.688;2024-03-06T03:40:47;100441.63;;;9.57;70.22
3748;BME280;1889;50.058;8.688;2024-03-06T03:43:16;100438.13;;;9.58;70.01
3748;BME280;1889;50.058;8.688;2024-03-06T03:45:46;100442.12;;;9.50;69.90
3748;BME280;1889;50.058;8.688;2024-03-06T03:48:15;100437.66;;;9.65;69.90
3748;BME280;1889;50.058;8.688;2024-03-06T03:50:44;100436.23;;;9.74;69.66
3748;BME280;1889;50.058;8.688;2024-03-06T03:53:14;100437.02;;;9.83;69.41
3748;BME280;1889;50.058;8.688;2024-03-06T03:55:44;100439.63;;;9.86;69.19
3748;BME280;1889;50.058;8.688;2024-03-06T03:58:13;100446.56;;;9.93;69.17
3748;BME280;1889;50.058;8.688;2024-03-06T04:00:42;100446.56;;;9.93;69.17
3748;BME280;1889;50.058;8.688;2024-03-06T04:03:12;100446.73;;;9.77;68.99
3748;BME280;1889;50.058;8.688;2024-03-06T04:05:41;100444.38;;;9.43;69.57
3748;BME280;1889;50.058;8.688;2024-03-06T04:08:11;100445.37;;;9.32;69.74
3748;BME280;1889;50.058;8.688;2024-03-06T04:10:41;100447.94;;;9.39;70.07
3748;BME280;1889;50.058;8.688;2024-03-06T04:13:14;100445.26;;;9.44;69.97
3748;BME280;1889;50.058;8.688;2024-03-06T04:15:44;100449.63;;;9.46;69.96
3748;BME280;1889;50.058;8.688;2024-03-06T04:18:14;100453.87;;;9.63;69.60
3748;BME280;1889;50.058;8.688;2024-03-06T04:20:43;100451.61;;;9.70;69.20
3748;BME280;1889;50.058;8.688;2024-03-06T04:23:12;100453.37;;;9.69;69.11
3748;BME280;1889;50.058;8.688;2024-03-06T04:25:41;100461.63;;;9.76;68.95
3748;BME280;1889;50.058;8.688;2024-03-06T04:28:11;100460.21;;;9.88;68.53
3748;BME280;1889;50.058;8.688;2024-03-06T04:30:41;100468.02;;;9.96;68.33
3748;BME280;1889;50.058;8.688;2024-03-06T04:33:10;100464.88;;;10.04;68.08
3748;BME280;1889;50.058;8.688;2024-03-06T04:35:41;100474.01;;;10.10;68.02
3748;BME280;1889;50.058;8.688;2024-03-06T04:38:10;100482.33;;;9.65;68.22
3748;BME280;1889;50.058;8.688;2024-03-06T04:40:40;100480.65;;;9.54;68.95
3748;BME280;1889;50.058;8.688;2024-03-06T04:43:09;100464.64;;;9.29;69.05
3748;BME280;1889;50.058;8.688;2024-03-06T04:45:39;100464.64;;;9.29;69.05
3748;BME280;1889;50.058;8.688;2024-03-06T04:48:08;100475.08;;;9.40;69.49
3748;BME280;1889;50.058;8.688;2024-03-06T04:50:37;100478.33;;;9.69;68.54
3748;BME280;1889;50.058;8.688;2024-03-06T04:53:07;100482.66;;;9.73;68.38
3748;BME280;1889;50.058;8.688;2024-03-06T04:55:36;100487.02;;;9.80;68.44
3748;BME280;1889;50.058;8.688;2024-03-06T04:58:06;100483.95;;;9.78;68.57
3748;BME280;1889;50.058;8.688;2024-03-06T05:00:35;100488.85;;;9.68;68.56
3748;BME280;1889;50.058;8.688;2024-03-06T05:03:04;100491.02;;;9.71;68.71
3748;BME280;1889;50.058;8.688;2024-03-06T05:05:34;100491.02;;;9.71;68.71
3748;BME280;1889;50.058;8.688;2024-03-06T05:08:04;100504.09;;;9.80;68.80
3748;BME280;1889;50.058;8.688;2024-03-06T05:10:35;100506.22;;;9.87;68.76
3748;BME280;1889;50.058;8.688;2024-03-06T05:13:04;100512.36;;;9.86;68.36
3748;BME280;1889;50.058;8.688;2024-03-06T05:15:33;100510.10;;;9.93;68.38
3748;BME280;1889;50.058;8.688;2024-03-06T05:18:03;100510.10;;;9.93;68.38
3748;BME280;1889;50.058;8.688;2024-03-06T05:20:32;100517.11;;;9.94;68.26
3748;BME280;1889;50.058;8.688;2024-03-06T05:23:01;100514.40;;;10.03;68.00
3748;BME280;1889;50.058;8.688;2024-03-06T05:25:31;100517.11;;;9.94;67.98
3748;BME280;1889;50.058;8.688;2024-03-06T05:28:00;100523.61;;;10.03;67.62
3748;BME280;1889;50.058;8.688;2024-03-06T05:30:29;100523.69;;;9.92;67.67
3748;BME280;1889;50.058;8.688;2024-03-06T05:32:59;100525.50;;;9.87;68.26
3748;BME280;1889;50.058;8.688;2024-03-06T05:35:28;100528.13;;;9.87;68.44
3748;BME280;1889;50.058;8.688;2024-03-06T05:37:57;100522.00;;;9.85;68.39
3748;BME280;1889;50.058;8.688;2024-03-06T05:40:27;100525.94;;;9.85;68.40
3748;BME280;1889;50.058;8.688;2024-03-06T05:42:56;100527.70;;;9.85;68.33
3748;BME280;1889;50.058;8.688;2024-03-06T05:45:25;100526.39;;;9.85;68.45
3748;BME280;1889;50.058;8.688;2024-03-06T05:47:55;100524.58;;;9.90;68.38
3748;BME280;1889;50.058;8.688;2024-03-06T05:50:24;100526.33;;;9.91;68.40
3748;BME280;1889;50.058;8.688;2024-03-06T05:52:53;100535.09;;;9.91;68.38
3748;BME280;1889;50.058;8.688;2024-03-06T05:55:23;100538.14;;;9.94;68.30
3748;BME280;1889;50.058;8.688;2024-03-06T05:57:52;100543.83;;;9.97;68.27
3748;BME280;1889;50.058;8.688;2024-03-06T06:00:21;100549.98;;;9.92;68.29
3748;BME280;1889;50.058;8.688;2024-03-06T06:02:50;100564.42;;;9.95;68.76
3748;BME280;1889;50.058;8.688;2024-03-06T06:05:20;100564.42;;;9.95;68.76
3748;BME280;1889;50.058;8.688;2024-03-06T06:07:51;100571.38;;;10.01;68.33
3748;BME280;1889;50.058;8.688;2024-03-06T06:10:20;100569.63;;;10.00;68.39
3748;BME280;1889;50.058;8.688;2024-03-06T06:12:49;100576.78;;;9.83;68.63
3748;BME280;1889;50.058;8.688;2024-03-06T06:15:19;100571.69;;;9.57;68.70
3748;BME280;1889;50.058;8.688;2024-03-06T06:17:48;100571.55;;;9.07;69.94
3748;BME280;1889;50.058;8.688;2024-03-06T06:20:17;100571.55;;;9.07;69.94
3748;BME280;1889;50.058;8.688;2024-03-06T06:22:47;100585.45;;;9.25;70.05
3748;BME280;1889;50.058;8.688;2024-03-06T06:25:16;100581.42;;;9.43;69.58
3748;BME280;1889;50.058;8.688;2024-03-06T06:27:45;100587.94;;;9.49;69.39
3748;BME280;1889;50.058;8.688;2024-03-06T06:30:17;100580.14;;;9.38;69.47
3748;BME280;1889;50.058;8.688;2024-03-06T06:32:46;100589.34;;;9.38;69.88
3748;BME280;1889;50.058;8.688;2024-03-06T06:35:15;100595.03;;;9.39;69.79
3748;BME280;1889;50.058;8.688;2024-03-06T06:37:45;100591.48;;;9.45;69.59
3748;BME280;1889;50.058;8.688;2024-03-06T06:40:14;100598.53;;;9.38;69.72
3748;BME280;1889;50.058;8.688;2024-03-06T06:42:48;100588.87;;;9.42;69.80
3748;BME280;1889;50.058;8.688;2024-03-06T06:45:19;100591.88;;;9.50;69.78
3748;BME280;1889;50.058;8.688;2024-03-06T06:47:50;100591.44;;;9.51;69.91
3748;BME280;1889;50.058;8.688;2024-03-06T06:50:20;100597.52;;;9.64;69.96
3748;BME280;1889;50.058;8.688;2024-03-06T06:52:54;100596.11;;;9.76;69.89
3748;BME280;1889;50.058;8.688;2024-03-06T06:55:23;100600.44;;;9.83;69.80
3748;BME280;1889;50.058;8.688;2024-03-06T06:57:52;100607.38;;;9.93;69.81
3748;BME280;1889;50.058;8.688;2024-03-06T07:00:23;100609.89;;;10.07;69.51
3748;BME280;1889;50.058;8.688;2024-03-06T07:02:53;100611.59;;;10.20;69.16
3748;BME280;1889;50.058;8.688;2024-03-06T07:05:22;100617.68;;;10.23;69.06
3748;BME280;1889;50.058;8.688;2024-03-06T07:07:52;100611.48;;;10.30;68.87
3748;BME280;1889;50.058;8.688;2024-03-06T07:10:21;100616.21;;;10.42;68.30
3748;BME280;1889;50.058;8.688;2024-03-06T07:12:51;100626.80;;;10.36;68.43
3748;BME280;1889;50.058;8.688;2024-03-06T07:15:20;100638.13;;;10.44;68.40
3748;BME280;1889;50.058;8.688;2024-03-06T07:17:50;100646.84;;;10.49;68.39
3748;BME280;1889;50.058;8.688;2024-03-06T07:20:19;100652.48;;;10.54;68.53
3748;BME280;1889;50.058;8.688;2024-03-06T07:22:48;100655.47;;;10.64;68.47
3748;BME280;1889;50.058;8.688;2024-03-06T07:25:19;100655.38;;;10.75;68.26
3748;BME280;1889;50.058;8.688;2024-03-06T07:27:48;100652.23;;;10.80;68.23
3748;BME280;1889;50.058;8.688;2024-03-06T07:30:18;100657.86;;;10.89;68.00
3748;BME280;1889;50.058;8.688;2024-03-06T07:32:47;100659.97;;;10.97;67.87
3748;BME280;1889;50.058;8.688;2024-03-06T07:35:16;100669.98;;;11.03;67.81
3748;BME280;1889;50.058;8.688;2024-03-06T07:37:46;100668.27;;;11.02;68.02
3748;BME280;1889;50.058;8.688;2024-03-06T07:40:15;100668.14;;;11.12;68.26
3748;BME280;1889;50.058;8.688;2024-03-06T07:42:44;100664.96;;;11.21;68.26
3748;BME280;1889;50.058;8.688;2024-03-06T07:45:14;100665.92;;;11.14;68.49
3748;BME280;1889;50.058;8.688;2024-03-06T07:47:43;100676.19;;;11.37;67.62
3748;BME280;1889;50.058;8.688;2024-03-06T07:50:13;100685.30;;;11.47;67.42
3748;BME280;1889;50.058;8.688;2024-03-06T07:52:45;100685.17;;;11.58;67.29
3748;BME280;1889;50.058;8.688;2024-03-06T07:55:14;100682.03;;;11.62;67.04
3748;BME280;1889;50.058;8.688;2024-03-06T07:57:43;100692.09;;;11.67;67.13
3748;BME280;1889;50.058;8.688;2024-03-06T08:00:13;100690.21;;;11.76;66.96
3748;BME280;1889;50.058;8.688;2024-03-06T08:02:47;100694.98;;;11.83;66.61
3748;BME280;1889;50.058;8.688;2024-03-06T08:05:19;100693.59;;;11.88;66.35
3748;BME280;1889;50.058;8.688;2024-03-06T08:07:49;100695.35;;;11.87;66.17
3748;BME280;1889;50.058;8.688;2024-03-06T08:10:19;100697.17;;;11.83;66.24
3748;BME280;1889;50.058;8.688;2024-03-06T08:12:48;100693.68;;;11.81;66.53
3748;BME280;1889;50.058;8.688;2024-03-06T08:15:18;100702.95;;;11.77;66.77
3748;BME280;1889;50.058;8.688;2024-03-06T08:17:49;100706.94;;;11.74;67.05
3748;BME280;1889;50.058;8.688;2024-03-06T08:20:20;100712.23;;;11.75;67.41
3748;BME280;1889;50.058;8.688;2024-03-06T08:22:50;100711.34;;;11.73;67.74
3748;BME280;1889;50.058;8.688;2024-03-06T08:25:19;100710.42;;;11.77;67.93
3748;BME280;1889;50.058;8.688;2024-03-06T08:27:48;100706.45;;;11.79;68.21
3748;BME280;1889;50.058;8.688;2024-03-06T08:30:18;100712.38;;;11.96;68.07
3748;BME280;1889;50.058;8.688;2024-03-06T08:32:47;100705.44;;;11.89;68.18
3748;BME280;1889;50.058;8.688;2024-03-06T08:35:17;100700.78;;;11.73;68.76
3748;BME280;1889;50.058;8.688;2024-03-06T08:37:48;100706.09;;;11.70;68.80
3748;BME280;1889;50.058;8.688;2024-03-06T08:40:17;100708.19;;;11.81;69.02
3748;BME280;1889;50.058;8.688;2024-03-06T08:42:47;100711.25;;;11.82;68.64
3748;BME280;1889;50.058;8.688;2024-03-06T08:45:17;100712.74;;;11.28;71.25
3748;BME280;1889;50.058;8.688;2024-03-06T08:47:47;100712.68;;;11.70;70.47
3748;BME280;1889;50.058;8.688;2024-03-06T08:50:21;100714.29;;;11.47;71.20
3748;BME280;1889;50.058;8.688;2024-03-06T08:52:51;100723.61;;;11.77;70.32
3748;BME280;1889;50.058;8.688;2024-03-06T08:55:20;100717.50;;;11.72;71.00
3748;BME280;1889;50.058;8.688;2024-03-06T08:57:50;100721.39;;;12.11;69.74
3748;BME280;1889;50.058;8.688;2024-03-06T09:00:20;100720.67;;;12.30;69.36
3748;BME280;1889;50.058;8.688;2024-03-06T09:02:50;100722.33;;;12.37;69.21
3748;BME280;1889;50.058;8.688;2024-03-06T09:05:19;100719.20;;;12.09;69.92
3748;BME280;1889;50.058;8.688;2024-03-06T09:07:50;100729.31;;;12.10;70.26
3748;BME280;1889;50.058;8.688;2024-03-06T09:10:19;100725.30;;;12.43;69.39
3748;BME280;1889;50.058;8.688;2024-03-06T09:12:49;100726.96;;;12.21;69.66
3748;BME280;1889;50.058;8.688;2024-03-06T09:15:18;100724.13;;;12.34;69.79
3748;BME280;1889;50.058;8.688;2024-03-06T09:17:48;100723.78;;;12.28;69.08
3748;BME280;1889;50.058;8.688;2024-03-06T09:20:17;100724.73;;;12.51;69.18
3748;BME280;1889;50.058;8.688;2024-03-06T09:22:47;100723.86;;;12.50;69.38
3748;BME280;1889;50.058;8.688;2024-03-06T09:25:17;100727.50;;;12.43;69.37
3748;BME280;1889;50.058;8.688;2024-03-06T09:27:46;100724.11;;;12.64;68.85
3748;BME280;1889;50.058;8.688;2024-03-06T09:30:15;100729.77;;;12.66;68.43
3748;BME280;1889;50.058;8.688;2024-03-06T09:32:45;100724.22;;;12.81;67.98
3748;BME280;1889;50.058;8.688;2024-03-06T09:35:14;100725.95;;;12.30;67.93
3748;BME280;1889;50.058;8.688;2024-03-06T09:37:45;100735.54;;;12.36;68.83
3748;BME280;1889;50.058;8.688;2024-03-06T09:40:22;100732.17;;;12.54;68.32
3748;BME280;1889;50.058;8.688;2024-03-06T09:42:51;100734.30;;;12.85;67.35
3748;BME280;1889;50.058;8.688;2024-03-06T09:45:21;100728.53;;;12.88;66.41
3748;BME280;1889;50.058;8.688;2024-03-06T09:47:52;100732.83;;;12.94;66.02
3748;BME280;1889;50.058;8.688;2024-03-06T09:50:23;100732.15;;;12.81;66.52
3748;BME280;1889;50.058;8.688;2024-03-06T09:52:55;100730.40;;;13.06;66.07
3748;BME280;1889;50.058;8.688;2024-03-06T09:55:25;100726.94;;;13.04;65.28
3748;BME280;1889;50.058;8.688;2024-03-06T09:57:55;100732.63;;;12.81;67.02
3748;BME280;1889;50.058;8.688;2024-03-06T10:00:25;100733.88;;;12.57;67.30
3748;BME280;1889;50.058;8.688;2024-03-06T10:02:58;100732.80;;;12.95;66.75
3748;BME280;1889;50.058;8.688;2024-03-06T10:05:29;100738.30;;;13.07;65.92
3748;BME280;1889;50.058;8.688;2024-03-06T10:08:01;100737.63;;;12.14;67.49
3748;BME280;1889;50.058;8.688;2024-03-06T10:10:32;100735.30;;;12.51;67.76
3748;BME280;1889;50.058;8.688;2024-03-06T10:13:02;100734.69;;;12.89;67.24
3748;BME280;1889;50.058;8.688;2024-03-06T10:15:31;100732.30;;;12.47;65.80
3748;BME280;1889;50.058;8.688;2024-03-06T10:18:12;100738.61;;;12.07;67.92
3748;BME280;1889;50.058;8.688;2024-03-06T10:20:41;100729.64;;;12.74;66.87
3748;BME280;1889;50.058;8.688;2024-03-06T10:23:11;100732.84;;;13.19;65.62
3748;BME280;1889;50.058;8.688;2024-03-06T10:25:48;100737.22;;;13.44;65.45
3748;BME280;1889;50.058;8.688;2024-03-06T10:28:22;100735.37;;;12.98;64.24
3748;BME280;1889;50.058;8.688;2024-03-06T10:31:02;100741.02;;;13.04;65.18
3748;BME280;1889;50.058;8.688;2024-03-06T10:33:26;100737.63;;;12.42;64.64
3748;BME280;1889;50.058;8.688;2024-03-06T10:35:57;100741.71;;;12.35;65.28
3748;BME280;1889;50.058;8.688;2024-03-06T10:38:28;100742.03;;;12.42;64.59
3748;BME280;1889;50.058;8.688;2024-03-06T10:40:59;100742.17;;;12.63;64.27
3748;BME280;1889;50.058;8.688;2024-03-06T10:43:30;100743.22;;;12.51;64.18
3748;BME280;1889;50.058;8.688;2024-03-06T10:46:01;100747.93;;;12.32;65.10
3748;BME280;1889;50.058;8.688;2024-03-06T10:48:34;100747.55;;;12.82;64.36
3748;BME280;1889;50.058;8.688;2024-03-06T10:51:05;100740.95;;;13.07;63.41
3748;BME280;1889;50.058;8.688;2024-03-06T10:53:35;100745.03;;;13.01;62.31
3748;BME280;1889;50.058;8.688;2024-03-06T10:56:08;100745.98;;;13.22;62.04
3748;BME280;1889;50.058;8.688;2024-03-06T10:58:38;100753.41;;;12.74;62.51
3748;BME280;1889;50.058;8.688;2024-03-06T11:01:10;100752.30;;;12.02;63.14
3748;BME280;1889;50.058;8.688;2024-03-06T11:03:40;100750.71;;;11.90;63.73
3748;BME280;1889;50.058;8.688;2024-03-06T11:06:10;100756.37;;;11.93;64.29
3748;BME280;1889;50.058;8.688;2024-03-06T11:08:40;100765.08;;;11.62;65.01
3748;BME280;1889;50.058;8.688;2024-03-06T11:11:24;100764.89;;;11.81;65.58
3748;BME280;1889;50.058;8.688;2024-03-06T11:14:04;100771.41;;;12.19;64.93
3748;BME280;1889;50.058;8.688;2024-03-06T11:16:55;100760.69;;;12.59;64.32
3748;BME280;1889;50.058;8.688;2024-03-06T11:19:08;100769.95;;;12.86;63.55
3748;BME280;1889;50.058;8.688;2024-03-06T11:21:47;100768.94;;;12.93;62.81
3748;BME280;1889;50.058;8.688;2024-03-06T11:24:24;100768.58;;;12.63;61.95
3748;BME280;1889;50.058;8.688;2024-03-06T11:27:01;100773.38;;;12.36;63.67
3748;BME280;1889;50.058;8.688;2024-03-06T11:30:03;100763.67;;;12.38;63.77
3748;BME280;1889;50.058;8.688;2024-03-06T11:32:34;100766.77;;;12.36;63.37
3748;BME280;1889;50.058;8.688;2024-03-06T11:35:04;100768.76;;;12.20;64.19
3748;BME280;1889;50.058;8.688;2024-03-06T11:37:35;100769.67;;;12.16;63.90
3748;BME280;1889;50.058;8.688;2024-03-06T11:40:07;100771.48;;;12.16;63.35
3748;BME280;1889;50.058;8.688;2024-03-06T11:42:37;100769.44;;;12.33;64.21
3748;BME280;1889;50.058;8.688;2024-03-06T11:45:19;100762.11;;;12.53;63.69
3748;BME280;1889;50.058;8.688;2024-03-06T11:48:01;100766.05;;;13.07;63.29
3748;BME280;1889;50.058;8.688;2024-03-06T11:50:30;100764.14;;;13.18;61.90
3748;BME280;1889;50.058;8.688;2024-03-06T11:53:02;100767.39;;;13.06;62.47
3748;BME280;1889;50.058;8.688;2024-03-06T11:55:33;100764.75;;;13.06;61.29
3748;BME280;1889;50.058;8.688;2024-03-06T11:58:02;100765.87;;;13.65;61.24
3748;BME280;1889;50.058;8.688;2024-03-06T12:00:32;100757.92;;;14.08;60.67
3748;BME280;1889;50.058;8.688;2024-03-06T12:03:01;100757.97;;;14.05;59.42
3748;BME280;1889;50.058;8.688;2024-03-06T12:05:32;100758.44;;;14.45;59.25
3748;BME280;1889;50.058;8.688;2024-03-06T12:08:02;100763.20;;;14.28;57.58
3748;BME280;1889;50.058;8.688;2024-03-06T12:10:31;100756.78;;;14.41;58.07
3748;BME280;1889;50.058;8.688;2024-03-06T12:13:03;100764.84;;;14.14;58.02
3748;BME280;1889;50.058;8.688;2024-03-06T12:15:32;100758.36;;;13.66;57.70
3748;BME280;1889;50.058;8.688;2024-03-06T12:18:02;100756.30;;;13.60;59.11
3748;BME280;1889;50.058;8.688;2024-03-06T12:20:31;100749.84;;;13.73;57.92
3748;BME280;1889;50.058;8.688;2024-03-06T12:23:00;100758.79;;;13.67;57.91
3748;BME280;1889;50.058;8.688;2024-03-06T12:25:31;100752.28;;;13.84;57.83
3748;BME280;1889;50.058;8.688;2024-03-06T12:28:06;100757.30;;;14.17;57.72
3748;BME280;1889;50.058;8.688;2024-03-06T12:30:40;100755.72;;;14.48;57.38
3748;BME280;1889;50.058;8.688;2024-03-06T12:33:05;100751.12;;;14.74;56.75
3748;BME280;1889;50.058;8.688;2024-03-06T12:35:35;100752.86;;;14.36;56.40
3748;BME280;1889;50.058;8.688;2024-03-06T12:38:14;100759.45;;;14.59;56.89
3748;BME280;1889;50.058;8.688;2024-03-06T12:40:44;100756.20;;;14.83;56.18
3748;BME280;1889;50.058;8.688;2024-03-06T12:43:13;100760.08;;;14.68;56.19
3748;BME280;1889;50.058;8.688;2024-03-06T12:45:43;100765.83;;;13.89;57.29
3748;BME280;1889;50.058;8.688;2024-03-06T12:48:12;100765.58;;;13.58;58.57
3748;BME280;1889;50.058;8.688;2024-03-06T12:50:41;100764.61;;;13.85;58.31
3748;BME280;1889;50.058;8.688;2024-03-06T12:53:10;100763.72;;;14.26;57.54
3748;BME280;1889;50.058;8.688;2024-03-06T12:55:40;100767.56;;;13.90;56.69
3748;BME280;1889;50.058;8.688;2024-03-06T12:58:11;100763.78;;;13.81;57.33
3748;BME280;1889;50.058;8.688;2024-03-06T13:00:41;100755.92;;;13.56;57.38
3748;BME280;1889;50.058;8.688;2024-03-06T13:03:10;100755.45;;;13.58;57.71
3748;BME280;1889;50.058;8.688;2024-03-06T13:05:39;100753.79;;;13.74;57.45
3748;BME280;1889;50.058;8.688;2024-03-06T13:08:10;100754.17;;;13.98;57.57
3748;BME280;1889;50.058;8.688;2024-03-06T13:10:42;100761.66;;;13.55;57.37
3748;BME280;1889;50.058;8.688;2024-03-06T13:13:11;100761.31;;;13.51;58.27
3748;BME280;1889;50.058;8.688;2024-03-06T13:15:40;100758.52;;;14.02;57.33
3748;BME280;1889;50.058;8.688;2024-03-06T13:18:10;100755.83;;;13.83;56.57
3748;BME280;1889;50.058;8.688;2024-03-06T13:20:39;100755.98;;;14.17;56.12
3748;BME280;1889;50.058;8.688;2024-03-06T13:23:09;100757.92;;;13.45;56.76
3748;BME280;1889;50.058;8.688;2024-03-06T13:25:38;100757.48;;;13.87;56.87
3748;BME280;1889;50.058;8.688;2024-03-06T13:28:08;100754.98;;;14.21;56.16
3748;BME280;1889;50.058;8.688;2024-03-06T13:30:37;100756.40;;;14.18;56.25
3748;BME280;1889;50.058;8.688;2024-03-06T13:33:07;100756.08;;;13.91;56.22
3748;BME280;1889;50.058;8.688;2024-03-06T13:35:36;100756.82;;;13.98;56.64